sensor_id;sensor_type;location;lat;lon;timestamp;pressure;altitude;pressure_sealevel;temperature;humidity
43488;BME280;29078;41.932;25.554;2022-12-22T00:02:02;100026.94;;;1.43;63.30
43488;BME280;29078;41.932;25.554;2022-12-22T00:04:47;100024.13;;;1.46;62.88
43488;BME280;29078;41.932;25.554;2022-12-22T00:07:32;99939.06;;;0.86;62.85
43488;BME280;29078;41.932;25.554;2022-12-22T00:10:17;100039.63;;;1.47;62.61
43488;BME280;29078;41.932;25.554;2022-12-22T00:13:01;99933.94;;;0.72;63.05
43488;BME280;29078;41.932;25.554;2022-12-22T00:15:45;99943.13;;;0.77;62.79
43488;BME280;29078;41.932;25.554;2022-12-22T00:18:29;99965.78;;;0.88;62.81
43488;BME280;29078;41.932;25.554;2022-12-22T00:21:13;100036.63;;;1.41;62.93
43488;BME280;29078;41.932;25.554;2022-12-22T00:23:58;99993.06;;;1.19;62.68
43488;BME280;29078;41.932;25.554;2022-12-22T00:26:42;99985.28;;;1.06;62.95
43488;BME280;29078;41.932;25.554;2022-12-22T00:29:34;100032.28;;;1.28;62.98
43488;BME280;29078;41.932;25.554;2022-12-22T00:32:20;99956.31;;;0.87;62.77
43488;BME280;29078;41.932;25.554;2022-12-22T00:35:04;99965.16;;;0.84;63.40
43488;BME280;29078;41.932;25.554;2022-12-22T00:37:47;100012.31;;;1.16;62.96
43488;BME280;29078;41.932;25.554;2022-12-22T00:40:31;99942.19;;;0.78;62.90
43488;BME280;29078;41.932;25.554;2022-12-22T00:43:15;100010.13;;;1.23;63.24
43488;BME280;29078;41.932;25.554;2022-12-22T00:46:01;99961.50;;;1.00;63.09
43488;BME280;29078;41.932;25.554;2022-12-22T00:48:46;99951.34;;;0.84;63.10
43488;BME280;29078;41.932;25.554;2022-12-22T00:51:31;100009.81;;;1.15;63.11
43488;BME280;29078;41.932;25.554;2022-12-22T00:54:16;99984.56;;;1.04;63.04
43488;BME280;29078;41.932;25.554;2022-12-22T00:57:01;99922.22;;;0.66;62.98
43488;BME280;29078;41.932;25.554;2022-12-22T00:59:47;99997.16;;;1.10;62.65
43488;BME280;29078;41.932;25.554;2022-12-22T01:02:32;100003.59;;;1.17;62.78
43488;BME280;29078;41.932;25.554;2022-12-22T01:05:16;99895.53;;;0.51;62.86
43488;BME280;29078;41.932;25.554;2022-12-22T01:08:00;99996.00;;;1.14;62.76
43488;BME280;29078;41.932;25.554;2022-12-22T01:10:44;99991.22;;;1.08;62.96
43488;BME280;29078;41.932;25.554;2022-12-22T01:13:29;99983.41;;;1.08;62.64
43488;BME280;29078;41.932;25.554;2022-12-22T01:16:13;99907.88;;;0.60;62.75
43488;BME280;29078;41.932;25.554;2022-12-22T01:18:58;99975.72;;;1.07;62.29
43488;BME280;29078;41.932;25.554;2022-12-22T01:21:42;99983.59;;;1.18;62.79
43488;BME280;29078;41.932;25.554;2022-12-22T01:24:28;99901.97;;;0.58;62.46
43488;BME280;29078;41.932;25.554;2022-12-22T01:27:13;99982.66;;;1.19;62.46
43488;BME280;29078;41.932;25.554;2022-12-22T01:29:57;99921.28;;;0.80;62.46
43488;BME280;29078;41.932;25.554;2022-12-22T01:32:41;99910.47;;;0.73;62.45
43488;BME280;29078;41.932;25.554;2022-12-22T01:35:28;99930.44;;;0.85;62.53
43488;BME280;29078;41.932;25.554;2022-12-22T01:38:13;99924.22;;;0.75;62.27
43488;BME280;29078;41.932;25.554;2022-12-22T01:40:58;99994.34;;;1.13;62.52
43488;BME280;29078;41.932;25.554;2022-12-22T01:43:42;99964.81;;;1.02;62.31
43488;BME280;29078;41.932;25.554;2022-12-22T01:46:29;99963.25;;;0.99;62.30
43488;BME280;29078;41.932;25.554;2022-12-22T01:52:00;99974.06;;;1.06;62.72
43488;BME280;29078;41.932;25.554;2022-12-22T01:54:45;99885.88;;;0.53;62.65
43488;BME280;29078;41.932;25.554;2022-12-22T01:57:30;99904.34;;;0.61;62.39
43488;BME280;29078;41.932;25.554;2022-12-22T02:00:15;99856.50;;;0.27;62.78
43488;BME280;29078;41.932;25.554;2022-12-22T02:03:00;99897.09;;;0.54;62.44
43488;BME280;29078;41.932;25.554;2022-12-22T02:12:03;99875.56;;;0.52;62.53
43488;BME280;29078;41.932;25.554;2022-12-22T02:18:26;99849.00;;;0.36;62.40
43488;BME280;29078;41.932;25.554;2022-12-22T02:21:13;99919.00;;;0.75;62.86
43488;BME280;29078;41.932;25.554;2022-12-22T02:26:55;99924.00;;;0.78;62.70
43488;BME280;29078;41.932;25.554;2022-12-22T02:29:49;99870.38;;;0.52;62.71
43488;BME280;29078;41.932;25.554;2022-12-22T02:32:40;99813.19;;;0.15;62.20
43488;BME280;29078;41.932;25.554;2022-12-22T02:35:24;99934.25;;;0.92;62.50
43488;BME280;29078;41.932;25.554;2022-12-22T02:38:18;99861.88;;;0.37;62.08
43488;BME280;29078;41.932;25.554;2022-12-22T02:41:30;99921.81;;;0.85;62.04
43488;BME280;29078;41.932;25.554;2022-12-22T02:44:36;99928.97;;;0.81;62.15
43488;BME280;29078;41.932;25.554;2022-12-22T02:47:39;99853.56;;;0.32;62.14
43488;BME280;29078;41.932;25.554;2022-12-22T02:50:34;99912.34;;;0.71;62.40
43488;BME280;29078;41.932;25.554;2022-12-22T02:53:19;99820.97;;;0.15;62.19
43488;BME280;29078;41.932;25.554;2022-12-22T02:56:06;99863.53;;;0.38;61.93
43488;BME280;29078;41.932;25.554;2022-12-22T02:58:51;99948.94;;;0.81;62.08
43488;BME280;29078;41.932;25.554;2022-12-22T03:01:37;99638.63;;;-1.14;62.17
43488;BME280;29078;41.932;25.554;2022-12-22T03:04:21;99924.72;;;0.68;62.55
43488;BME280;29078;41.932;25.554;2022-12-22T03:07:05;99893.03;;;0.37;62.29
43488;BME280;29078;41.932;25.554;2022-12-22T03:09:49;99870.41;;;0.39;62.49
43488;BME280;29078;41.932;25.554;2022-12-22T03:12:32;99901.53;;;0.64;62.48
43488;BME280;29078;41.932;25.554;2022-12-22T03:15:17;99917.13;;;0.77;62.14
43488;BME280;29078;41.932;25.554;2022-12-22T03:18:06;99892.72;;;0.54;62.24
43488;BME280;29078;41.932;25.554;2022-12-22T03:20:50;99769.16;;;-0.24;62.29
43488;BME280;29078;41.932;25.554;2022-12-22T03:23:34;99900.09;;;0.60;62.14
43488;BME280;29078;41.932;25.554;2022-12-22T03:26:18;99915.88;;;0.70;62.22
43488;BME280;29078;41.932;25.554;2022-12-22T03:28:44;99860.22;;;0.36;62.21
43488;BME280;29078;41.932;25.554;2022-12-22T03:31:10;99946.66;;;0.89;62.05
43488;BME280;29078;41.932;25.554;2022-12-22T03:33:36;99804.47;;;0.04;61.96
43488;BME280;29078;41.932;25.554;2022-12-22T03:36:02;99899.03;;;0.63;61.97
43488;BME280;29078;41.932;25.554;2022-12-22T03:38:27;99939.56;;;0.91;62.10
43488;BME280;29078;41.932;25.554;2022-12-22T03:40:53;99861.06;;;0.37;62.05
43488;BME280;29078;41.932;25.554;2022-12-22T03:43:18;99852.13;;;0.28;62.00
43488;BME280;29078;41.932;25.554;2022-12-22T03:46:03;99848.69;;;0.27;62.20
43488;BME280;29078;41.932;25.554;2022-12-22T03:48:47;99851.28;;;0.27;62.05
43488;BME280;29078;41.932;25.554;2022-12-22T03:51:33;99919.63;;;0.66;62.15
43488;BME280;29078;41.932;25.554;2022-12-22T03:53:59;99843.31;;;0.18;62.24
43488;BME280;29078;41.932;25.554;2022-12-22T03:56:24;99884.63;;;0.34;62.26
43488;BME280;29078;41.932;25.554;2022-12-22T03:58:50;99875.59;;;0.39;61.98
43488;BME280;29078;41.932;25.554;2022-12-22T04:01:15;99852.13;;;0.28;61.92
43488;BME280;29078;41.932;25.554;2022-12-22T04:03:41;99935.34;;;0.77;62.08
43488;BME280;29078;41.932;25.554;2022-12-22T04:06:06;99871.03;;;0.30;61.98
43488;BME280;29078;41.932;25.554;2022-12-22T04:08:32;99867.72;;;0.28;61.91
43488;BME280;29078;41.932;25.554;2022-12-22T04:10:58;99928.34;;;0.65;62.10
43488;BME280;29078;41.932;25.554;2022-12-22T04:13:42;99849.84;;;0.23;61.79
43488;BME280;29078;41.932;25.554;2022-12-22T04:16:07;99912.34;;;0.58;61.92
43488;BME280;29078;41.932;25.554;2022-12-22T04:18:32;99838.53;;;0.12;61.81
43488;BME280;29078;41.932;25.554;2022-12-22T04:20:58;99904.03;;;0.53;61.87
43488;BME280;29078;41.932;25.554;2022-12-22T04:23:23;99937.81;;;0.66;61.80
43488;BME280;29078;41.932;25.554;2022-12-22T04:25:48;99902.78;;;0.59;61.87
43488;BME280;29078;41.932;25.554;2022-12-22T04:28:14;99831.69;;;0.11;61.82
43488;BME280;29078;41.932;25.554;2022-12-22T04:30:39;99932.28;;;0.71;61.34
43488;BME280;29078;41.932;25.554;2022-12-22T04:33:05;99794.78;;;-0.07;61.60
43488;BME280;29078;41.932;25.554;2022-12-22T04:35:30;99881.22;;;0.33;61.62
43488;BME280;29078;41.932;25.554;2022-12-22T04:37:55;99938.97;;;0.62;61.54
43488;BME280;29078;41.932;25.554;2022-12-22T04:40:21;99931.88;;;0.64;61.81
43488;BME280;29078;41.932;25.554;2022-12-22T04:42:46;99783.19;;;-0.27;61.65
43488;BME280;29078;41.932;25.554;2022-12-22T04:45:11;99859.59;;;0.20;61.68
43488;BME280;29078;41.932;25.554;2022-12-22T04:47:37;99889.63;;;0.37;62.00
43488;BME280;29078;41.932;25.554;2022-12-22T04:50:03;99913.19;;;0.59;61.80
43488;BME280;29078;41.932;25.554;2022-12-22T04:52:29;99802.78;;;-0.10;61.75
43488;BME280;29078;41.932;25.554;2022-12-22T04:54:54;99921.28;;;0.54;61.53
43488;BME280;29078;41.932;25.554;2022-12-22T04:57:20;99881.00;;;0.36;61.62
43488;BME280;29078;41.932;25.554;2022-12-22T04:59:45;99815.44;;;-0.06;61.58
43488;BME280;29078;41.932;25.554;2022-12-22T05:02:11;99815.56;;;-0.07;61.54
43488;BME280;29078;41.932;25.554;2022-12-22T05:04:37;99851.72;;;0.09;61.44
43488;BME280;29078;41.932;25.554;2022-12-22T05:07:02;99860.66;;;0.17;61.64
43488;BME280;29078;41.932;25.554;2022-12-22T05:09:28;99901.03;;;0.47;61.16
43488;BME280;29078;41.932;25.554;2022-12-22T05:11:53;99850.66;;;-0.02;61.55
43488;BME280;29078;41.932;25.554;2022-12-22T05:14:18;99901.97;;;0.33;62.04
43488;BME280;29078;41.932;25.554;2022-12-22T05:16:44;99900.13;;;0.35;61.86
43488;BME280;29078;41.932;25.554;2022-12-22T05:19:09;99882.34;;;0.16;61.38
43488;BME280;29078;41.932;25.554;2022-12-22T05:21:35;99805.69;;;-0.40;61.62
43488;BME280;29078;41.932;25.554;2022-12-22T05:24:00;99886.41;;;0.08;61.70
43488;BME280;29078;41.932;25.554;2022-12-22T05:26:26;99918.19;;;0.24;61.45
43488;BME280;29078;41.932;25.554;2022-12-22T05:28:51;99853.44;;;-0.17;61.54
43488;BME280;29078;41.932;25.554;2022-12-22T05:31:19;99891.81;;;0.05;61.71
43488;BME280;29078;41.932;25.554;2022-12-22T05:33:45;99905.09;;;0.00;61.69
43488;BME280;29078;41.932;25.554;2022-12-22T05:36:11;99851.78;;;-0.31;61.62
43488;BME280;29078;41.932;25.554;2022-12-22T05:38:36;99898.13;;;0.01;61.61
43488;BME280;29078;41.932;25.554;2022-12-22T05:41:02;99933.16;;;0.20;61.28
43488;BME280;29078;41.932;25.554;2022-12-22T05:43:28;99937.09;;;0.26;61.43
43488;BME280;29078;41.932;25.554;2022-12-22T05:45:53;99916.53;;;0.10;61.32
43488;BME280;29078;41.932;25.554;2022-12-22T05:48:18;99809.50;;;-0.58;61.28
43488;BME280;29078;41.932;25.554;2022-12-22T05:50:44;99936.66;;;0.19;61.19
43488;BME280;29078;41.932;25.554;2022-12-22T05:53:10;99867.97;;;-0.27;61.12
43488;BME280;29078;41.932;25.554;2022-12-22T05:55:36;99872.66;;;-0.20;61.43
43488;BME280;29078;41.932;25.554;2022-12-22T05:58:01;99902.56;;;-0.02;61.42
43488;BME280;29078;41.932;25.554;2022-12-22T06:00:28;99939.91;;;0.23;61.41
43488;BME280;29078;41.932;25.554;2022-12-22T06:02:54;99870.13;;;-0.34;61.38
43488;BME280;29078;41.932;25.554;2022-12-22T06:05:19;99856.63;;;-0.39;61.63
43488;BME280;29078;41.932;25.554;2022-12-22T06:07:45;99865.34;;;-0.40;61.11
43488;BME280;29078;41.932;25.554;2022-12-22T06:10:11;99849.69;;;-0.39;61.46
43488;BME280;29078;41.932;25.554;2022-12-22T06:12:37;99909.72;;;-0.05;61.41
43488;BME280;29078;41.932;25.554;2022-12-22T06:15:04;99895.91;;;-0.18;61.26
43488;BME280;29078;41.932;25.554;2022-12-22T06:17:29;99895.59;;;-0.14;61.14
43488;BME280;29078;41.932;25.554;2022-12-22T06:19:55;99818.50;;;-0.64;61.61
43488;BME280;29078;41.932;25.554;2022-12-22T06:22:20;99958.91;;;0.23;61.71
43488;BME280;29078;41.932;25.554;2022-12-22T06:24:46;99913.41;;;0.05;61.34
43488;BME280;29078;41.932;25.554;2022-12-22T06:27:11;99929.19;;;0.15;61.53
43488;BME280;29078;41.932;25.554;2022-12-22T06:29:37;99872.44;;;-0.17;61.32
43488;BME280;29078;41.932;25.554;2022-12-22T06:32:02;99917.56;;;0.20;61.17
43488;BME280;29078;41.932;25.554;2022-12-22T06:34:28;99958.91;;;0.49;61.10
43488;BME280;29078;41.932;25.554;2022-12-22T06:36:53;99868.34;;;0.06;61.00
43488;BME280;29078;41.932;25.554;2022-12-22T06:39:19;99879.75;;;0.16;60.96
43488;BME280;29078;41.932;25.554;2022-12-22T06:41:44;99885.78;;;0.17;61.05
43488;BME280;29078;41.932;25.554;2022-12-22T06:44:28;99959.84;;;0.60;60.82
43488;BME280;29078;41.932;25.554;2022-12-22T06:46:54;99891.38;;;0.11;60.63
43488;BME280;29078;41.932;25.554;2022-12-22T06:49:20;99966.59;;;0.50;60.47
43488;BME280;29078;41.932;25.554;2022-12-22T06:51:45;99953.09;;;0.32;60.69
43488;BME280;29078;41.932;25.554;2022-12-22T06:54:11;99976.78;;;0.41;60.92
43488;BME280;29078;41.932;25.554;2022-12-22T06:56:36;99927.06;;;-0.06;60.72
43488;BME280;29078;41.932;25.554;2022-12-22T06:59:02;99946.84;;;0.22;60.99
43488;BME280;29078;41.932;25.554;2022-12-22T07:01:27;99981.97;;;0.41;60.94
43488;BME280;29078;41.932;25.554;2022-12-22T07:03:53;99976.88;;;0.52;60.58
43488;BME280;29078;41.932;25.554;2022-12-22T07:06:18;99899.47;;;0.06;60.84
43488;BME280;29078;41.932;25.554;2022-12-22T07:08:45;99939.59;;;0.27;60.41
43488;BME280;29078;41.932;25.554;2022-12-22T07:11:11;99911.94;;;0.39;60.43
43488;BME280;29078;41.932;25.554;2022-12-22T07:13:37;99984.91;;;0.87;60.27
43488;BME280;29078;41.932;25.554;2022-12-22T07:16:04;99985.44;;;0.92;60.42
43488;BME280;29078;41.932;25.554;2022-12-22T07:18:32;99984.38;;;0.94;60.45
43488;BME280;29078;41.932;25.554;2022-12-22T07:20:58;99991.13;;;0.97;60.23
43488;BME280;29078;41.932;25.554;2022-12-22T07:23:24;99987.38;;;1.01;60.29
43488;BME280;29078;41.932;25.554;2022-12-22T07:25:50;99893.13;;;0.48;60.38
43488;BME280;29078;41.932;25.554;2022-12-22T07:28:16;99939.78;;;0.88;60.32
43488;BME280;29078;41.932;25.554;2022-12-22T07:30:41;99930.94;;;0.90;60.41
43488;BME280;29078;41.932;25.554;2022-12-22T07:33:06;99949.41;;;1.11;60.58
43488;BME280;29078;41.932;25.554;2022-12-22T07:35:32;99884.06;;;0.79;60.15
43488;BME280;29078;41.932;25.554;2022-12-22T07:37:57;99894.88;;;0.86;60.51
43488;BME280;29078;41.932;25.554;2022-12-22T07:40:23;99971.13;;;1.47;60.29
43488;BME280;29078;41.932;25.554;2022-12-22T07:42:48;99906.84;;;1.12;60.14
43488;BME280;29078;41.932;25.554;2022-12-22T07:45:16;99975.16;;;1.64;60.15
43488;BME280;29078;41.932;25.554;2022-12-22T07:47:42;99975.44;;;1.72;60.04
43488;BME280;29078;41.932;25.554;2022-12-22T07:50:14;99924.19;;;1.48;59.77
43488;BME280;29078;41.932;25.554;2022-12-22T07:52:50;99871.44;;;1.22;60.07
43488;BME280;29078;41.932;25.554;2022-12-22T07:55:15;99902.78;;;1.45;60.03
43488;BME280;29078;41.932;25.554;2022-12-22T07:57:41;99930.25;;;1.73;59.96
43488;BME280;29078;41.932;25.554;2022-12-22T08:00:07;99907.16;;;1.68;60.14
43488;BME280;29078;41.932;25.554;2022-12-22T08:02:32;99922.81;;;1.79;60.27
43488;BME280;29078;41.932;25.554;2022-12-22T08:04:57;99916.66;;;1.80;60.03
43488;BME280;29078;41.932;25.554;2022-12-22T08:07:23;99803.50;;;1.27;60.33
43488;BME280;29078;41.932;25.554;2022-12-22T08:09:48;99903.09;;;1.99;59.72
43488;BME280;29078;41.932;25.554;2022-12-22T08:12:14;99895.53;;;1.96;60.13
43488;BME280;29078;41.932;25.554;2022-12-22T08:14:39;99868.66;;;1.96;60.04
43488;BME280;29078;41.932;25.554;2022-12-22T08:17:04;99865.69;;;1.89;60.38
43488;BME280;29078;41.932;25.554;2022-12-22T08:19:30;99891.78;;;2.22;60.48
43488;BME280;29078;41.932;25.554;2022-12-22T08:21:57;99930.81;;;2.58;60.20
43488;BME280;29078;41.932;25.554;2022-12-22T08:24:22;99944.91;;;2.77;60.55
43488;BME280;29078;41.932;25.554;2022-12-22T08:26:51;99947.16;;;2.82;60.43
43488;BME280;29078;41.932;25.554;2022-12-22T08:29:26;99861.97;;;2.38;60.39
43488;BME280;29078;41.932;25.554;2022-12-22T08:31:53;99754.31;;;1.81;60.25
43488;BME280;29078;41.932;25.554;2022-12-22T08:34:19;99849.78;;;2.38;60.23
43488;BME280;29078;41.932;25.554;2022-12-22T08:36:48;99933.06;;;2.84;60.44
43488;BME280;29078;41.932;25.554;2022-12-22T08:39:16;99902.38;;;2.77;60.25
43488;BME280;29078;41.932;25.554;2022-12-22T08:41:42;99876.06;;;2.80;60.54
43488;BME280;29078;41.932;25.554;2022-12-22T08:44:14;99853.91;;;2.74;60.30
43488;BME280;29078;41.932;25.554;2022-12-22T08:46:40;99898.09;;;3.09;60.38
43488;BME280;29078;41.932;25.554;2022-12-22T08:49:06;99841.44;;;2.78;60.82
43488;BME280;29078;41.932;25.554;2022-12-22T08:51:31;99885.50;;;3.14;60.72
43488;BME280;29078;41.932;25.554;2022-12-22T08:53:56;99787.56;;;2.67;60.69
43488;BME280;29078;41.932;25.554;2022-12-22T08:56:22;99875.03;;;3.26;60.58
43488;BME280;29078;41.932;25.554;2022-12-22T08:58:47;99887.81;;;3.40;60.61
43488;BME280;29078;41.932;25.554;2022-12-22T09:01:20;99843.19;;;3.11;60.97
43488;BME280;29078;41.932;25.554;2022-12-22T09:03:50;99814.75;;;3.08;60.88
43488;BME280;29078;41.932;25.554;2022-12-22T09:06:18;99859.28;;;3.48;61.24
43488;BME280;29078;41.932;25.554;2022-12-22T09:08:44;99823.56;;;3.28;61.06
43488;BME280;29078;41.932;25.554;2022-12-22T09:11:09;99880.19;;;3.80;61.07
43488;BME280;29078;41.932;25.554;2022-12-22T09:13:35;99773.66;;;3.21;61.20
43488;BME280;29078;41.932;25.554;2022-12-22T09:16:07;99869.22;;;3.86;61.28
43488;BME280;29078;41.932;25.554;2022-12-22T09:18:33;99723.81;;;3.03;61.25
43488;BME280;29078;41.932;25.554;2022-12-22T09:20:58;99792.38;;;3.47;61.20
43488;BME280;29078;41.932;25.554;2022-12-22T09:23:24;99871.00;;;4.06;61.33
43488;BME280;29078;41.932;25.554;2022-12-22T09:25:50;99791.88;;;3.53;61.01
43488;BME280;29078;41.932;25.554;2022-12-22T09:28:15;99860.88;;;4.13;61.33
43488;BME280;29078;41.932;25.554;2022-12-22T09:30:41;99837.75;;;4.08;61.30
43488;BME280;29078;41.932;25.554;2022-12-22T09:33:07;99750.75;;;3.66;61.02
43488;BME280;29078;41.932;25.554;2022-12-22T09:35:32;99835.34;;;4.26;61.00
43488;BME280;29078;41.932;25.554;2022-12-22T09:37:58;99779.09;;;3.92;61.24
43488;BME280;29078;41.932;25.554;2022-12-22T09:40:25;99843.09;;;4.37;60.95
43488;BME280;29078;41.932;25.554;2022-12-22T09:42:51;99767.84;;;4.01;60.75
43488;BME280;29078;41.932;25.554;2022-12-22T09:45:17;99832.38;;;4.40;61.02
43488;BME280;29078;41.932;25.554;2022-12-22T09:47:47;99826.56;;;4.58;61.00
43488;BME280;29078;41.932;25.554;2022-12-22T09:50:21;99742.63;;;4.21;60.90
43488;BME280;29078;41.932;25.554;2022-12-22T09:53:04;99776.22;;;4.35;61.11
43488;BME280;29078;41.932;25.554;2022-12-22T09:55:40;99814.38;;;4.77;61.03
43488;BME280;29078;41.932;25.554;2022-12-22T10:00:45;99805.16;;;4.93;60.66
43488;BME280;29078;41.932;25.554;2022-12-22T10:03:13;99811.66;;;4.98;60.59
43488;BME280;29078;41.932;25.554;2022-12-22T10:05:55;99729.94;;;4.56;60.55
43488;BME280;29078;41.932;25.554;2022-12-22T10:08:28;99797.47;;;5.01;60.70
43488;BME280;29078;41.932;25.554;2022-12-22T10:10:56;99729.00;;;4.76;60.19
43488;BME280;29078;41.932;25.554;2022-12-22T10:13:22;99746.91;;;4.91;60.57
43488;BME280;29078;41.932;25.554;2022-12-22T10:15:48;99806.72;;;5.34;60.60
43488;BME280;29078;41.932;25.554;2022-12-22T10:18:19;99796.41;;;5.42;60.37
43488;BME280;29078;41.932;25.554;2022-12-22T10:23:34;99754.09;;;5.27;60.25
43488;BME280;29078;41.932;25.554;2022-12-22T10:26:24;99704.22;;;4.90;60.57
43488;BME280;29078;41.932;25.554;2022-12-22T10:29:10;99730.00;;;5.24;60.14
43488;BME280;29078;41.932;25.554;2022-12-22T10:32:01;99682.47;;;4.99;60.02
43488;BME280;29078;41.932;25.554;2022-12-22T10:34:27;99695.25;;;5.12;60.02
43488;BME280;29078;41.932;25.554;2022-12-22T10:36:57;99752.16;;;5.49;59.97
43488;BME280;29078;41.932;25.554;2022-12-22T10:39:25;99704.78;;;5.23;59.76
43488;BME280;29078;41.932;25.554;2022-12-22T10:41:52;99677.94;;;5.21;59.63
43488;BME280;29078;41.932;25.554;2022-12-22T10:44:27;99666.22;;;5.25;59.38
43488;BME280;29078;41.932;25.554;2022-12-22T10:46:55;99744.38;;;5.76;59.44
43488;BME280;29078;41.932;25.554;2022-12-22T10:49:34;99741.47;;;5.79;59.72
43488;BME280;29078;41.932;25.554;2022-12-22T10:52:13;99731.69;;;5.71;59.66
43488;BME280;29078;41.932;25.554;2022-12-22T10:54:40;99661.50;;;5.28;59.46
43488;BME280;29078;41.932;25.554;2022-12-22T10:59:58;99738.56;;;5.82;59.27
43488;BME280;29078;41.932;25.554;2022-12-22T11:02:37;99731.91;;;5.88;59.42
43488;BME280;29078;41.932;25.554;2022-12-22T11:05:08;99618.13;;;5.16;59.59
43488;BME280;29078;41.932;25.554;2022-12-22T11:07:36;99674.97;;;5.43;59.49
43488;BME280;29078;41.932;25.554;2022-12-22T11:10:14;99609.06;;;5.01;59.76
43488;BME280;29078;41.932;25.554;2022-12-22T11:13:00;99718.81;;;5.88;59.74
43488;BME280;29078;41.932;25.554;2022-12-22T11:24:00;99702.16;;;5.98;60.21
43488;BME280;29078;41.932;25.554;2022-12-22T11:31:33;99703.50;;;6.02;60.39
43488;BME280;29078;41.932;25.554;2022-12-22T11:39:57;99692.88;;;6.04;60.78
43488;BME280;29078;41.932;25.554;2022-12-22T11:46:18;99680.06;;;5.91;60.78
43488;BME280;29078;41.932;25.554;2022-12-22T11:59:53;99676.84;;;6.07;60.61
43488;BME280;29078;41.932;25.554;2022-12-22T12:05:39;99619.72;;;5.73;60.58
43488;BME280;29078;41.932;25.554;2022-12-22T12:16:39;99677.88;;;6.24;60.68
43488;BME280;29078;41.932;25.554;2022-12-22T12:22:08;99671.94;;;6.22;60.80
43488;BME280;29078;41.932;25.554;2022-12-22T12:30:04;99668.88;;;6.26;61.08
43488;BME280;29078;41.932;25.554;2022-12-22T12:32:57;99674.13;;;6.26;61.17
43488;BME280;29078;41.932;25.554;2022-12-22T12:41:11;99675.19;;;6.33;60.54
43488;BME280;29078;41.932;25.554;2022-12-22T12:43:40;99674.06;;;6.36;61.09
43488;BME280;29078;41.932;25.554;2022-12-22T12:52:09;99660.56;;;6.31;60.51
43488;BME280;29078;41.932;25.554;2022-12-22T12:54:41;99667.41;;;6.42;60.47
43488;BME280;29078;41.932;25.554;2022-12-22T13:08:08;99666.50;;;6.51;60.55
43488;BME280;29078;41.932;25.554;2022-12-22T13:18:43;99662.31;;;6.58;60.57
43488;BME280;29078;41.932;25.554;2022-12-22T13:21:21;99664.63;;;6.61;60.67
43488;BME280;29078;41.932;25.554;2022-12-22T13:24:19;99661.03;;;6.62;60.10
43488;BME280;29078;41.932;25.554;2022-12-22T13:26:46;99651.06;;;6.48;60.29
43488;BME280;29078;41.932;25.554;2022-12-22T13:29:21;99662.25;;;6.67;60.38
43488;BME280;29078;41.932;25.554;2022-12-22T13:31:56;99666.50;;;6.68;60.54
43488;BME280;29078;41.932;25.554;2022-12-22T13:37:19;99658.50;;;6.52;60.89
43488;BME280;29078;41.932;25.554;2022-12-22T13:40:05;99653.25;;;6.52;60.35
43488;BME280;29078;41.932;25.554;2022-12-22T13:42:50;99571.63;;;6.02;60.65
43488;BME280;29078;41.932;25.554;2022-12-22T13:45:41;99610.22;;;6.27;60.21
43488;BME280;29078;41.932;25.554;2022-12-22T13:50:51;99649.50;;;6.55;60.35
43488;BME280;29078;41.932;25.554;2022-12-22T13:53:39;99642.75;;;6.52;60.82
43488;BME280;29078;41.932;25.554;2022-12-22T13:56:18;99583.56;;;6.14;60.74
43488;BME280;29078;41.932;25.554;2022-12-22T13:58:45;99650.25;;;6.47;61.09
43488;BME280;29078;41.932;25.554;2022-12-22T14:01:17;99569.47;;;5.97;60.74
43488;BME280;29078;41.932;25.554;2022-12-22T14:04:00;99638.94;;;6.47;61.30
43488;BME280;29078;41.932;25.554;2022-12-22T14:06:36;99644.19;;;6.47;61.09
43488;BME280;29078;41.932;25.554;2022-12-22T14:09:16;99641.69;;;6.45;61.71
43488;BME280;29078;41.932;25.554;2022-12-22T14:12:05;99640.88;;;6.45;61.03
43488;BME280;29078;41.932;25.554;2022-12-22T14:16:59;99552.38;;;5.84;61.78
43488;BME280;29078;41.932;25.554;2022-12-22T14:19:29;99577.16;;;5.99;61.74
43488;BME280;29078;41.932;25.554;2022-12-22T14:22:02;99562.88;;;5.84;61.51
43488;BME280;29078;41.932;25.554;2022-12-22T14:24:31;99633.59;;;6.21;62.11
43488;BME280;29078;41.932;25.554;2022-12-22T14:26:58;99605.03;;;6.00;62.10
43488;BME280;29078;41.932;25.554;2022-12-22T14:29:26;99536.78;;;5.64;62.14
43488;BME280;29078;41.932;25.554;2022-12-22T14:32:00;99639.50;;;6.23;61.87
43488;BME280;29078;41.932;25.554;2022-12-22T14:34:29;99585.09;;;5.80;62.21
43488;BME280;29078;41.932;25.554;2022-12-22T14:36:56;99582.75;;;5.77;62.08
43488;BME280;29078;41.932;25.554;2022-12-22T14:39:24;99644.28;;;6.10;62.03
43488;BME280;29078;41.932;25.554;2022-12-22T14:41:53;99640.44;;;6.04;62.72
43488;BME280;29078;41.932;25.554;2022-12-22T14:49:48;99646.41;;;5.87;62.99
43488;BME280;29078;41.932;25.554;2022-12-22T14:52:47;99570.56;;;5.30;63.48
43488;BME280;29078;41.932;25.554;2022-12-22T14:55:25;99586.25;;;5.40;63.78
43488;BME280;29078;41.932;25.554;2022-12-22T14:58:03;99653.78;;;5.73;63.50
43488;BME280;29078;41.932;25.554;2022-12-22T15:00:35;99641.25;;;5.67;63.67
43488;BME280;29078;41.932;25.554;2022-12-22T15:03:35;99644.16;;;5.64;63.98
43488;BME280;29078;41.932;25.554;2022-12-22T15:06:40;99637.28;;;5.63;64.02
43488;BME280;29078;41.932;25.554;2022-12-22T15:09:23;99592.47;;;5.29;63.90
43488;BME280;29078;41.932;25.554;2022-12-22T15:11:52;99630.88;;;5.48;64.03
43488;BME280;29078;41.932;25.554;2022-12-22T15:14:21;99647.94;;;5.52;64.44
43488;BME280;29078;41.932;25.554;2022-12-22T15:16:47;99539.84;;;4.86;64.03
43488;BME280;29078;41.932;25.554;2022-12-22T15:19:14;99640.13;;;5.42;64.44
43488;BME280;29078;41.932;25.554;2022-12-22T15:21:41;99660.91;;;5.44;64.57
43488;BME280;29078;41.932;25.554;2022-12-22T15:24:15;99637.91;;;5.48;64.29
43488;BME280;29078;41.932;25.554;2022-12-22T15:26:42;99552.22;;;4.93;64.56
43488;BME280;29078;41.932;25.554;2022-12-22T15:29:07;99528.31;;;4.69;64.68
43488;BME280;29078;41.932;25.554;2022-12-22T15:31:33;99638.63;;;5.30;64.69
43488;BME280;29078;41.932;25.554;2022-12-22T15:34:00;99646.50;;;5.21;65.06